Time;durP1;ratioP1;P1;durP2;ratioP2;P2;SDS_P1;SDS_P2;PMS_P1;PMS_P2;Temp;Humidity;BMP_temperature;BMP_pressure;BME280_temperature;BME280_humidity;BME280_pressure;Samples;Min_cycle;Max_cycle;Signal;HPM_P1;HPM_P2
2024/01/12 00:01:30;;;;;;;;;4.00;4.00;;;;;21.19;44.26;101916.38;112200;1245;21912;-36
2024/01/12 00:03:57;;;;;;;;;4.00;4.00;;;;;21.19;44.44;101917.15;112239;1261;18423;-39
2024/01/12 00:06:25;;;;;;;;;4.00;4.00;;;;;21.18;44.15;101918.06;112107;1261;19949;-35
2024/01/12 00:08:52;;;;;;;;;3.33;3.00;;;;;21.18;44.11;101913.54;112168;1246;20635;-37
2024/01/12 00:11:19;;;;;;;;;6.00;3.00;;;;;21.18;44.25;101921.75;112135;1245;19594;-36
2024/01/12 00:13:49;;;;;;;;;3.00;3.00;;;;;21.17;44.17;101923.11;112051;1261;21550;-39
2024/01/12 00:16:17;;;;;;;;;4.00;4.00;;;;;21.17;43.98;101921.73;111895;1245;366478;-37
2024/01/12 00:18:44;;;;;;;;;4.00;4.00;;;;;21.17;44.01;101920.48;112159;1261;20849;-39
2024/01/12 00:21:11;;;;;;;;;3.00;3.00;;;;;21.17;44.07;101920.27;112179;1260;18931;-38
2024/01/12 00:23:39;;;;;;;;;4.00;3.00;;;;;21.17;43.96;101924.03;112166;1261;20700;-36
2024/01/12 00:26:06;;;;;;;;;3.00;3.00;;;;;21.19;43.88;101920.19;112169;1261;19569;-39
2024/01/12 00:28:34;;;;;;;;;3.00;3.00;;;;;21.19;43.91;101920.42;112120;1261;18762;-36
2024/01/12 00:31:01;;;;;;;;;4.00;4.00;;;;;21.20;43.82;101921.63;112172;1246;20797;-35
2024/01/12 00:33:28;;;;;;;;;4.00;3.00;;;;;21.18;43.91;101914.63;112068;1246;19660;-38
2024/01/12 00:35:56;;;;;;;;;3.00;3.00;;;;;21.18;43.96;101913.04;112073;1246;19956;-39
2024/01/12 00:38:23;;;;;;;;;4.00;3.00;;;;;21.17;43.91;101912.64;112068;1262;19808;-36
2024/01/12 00:40:51;;;;;;;;;4.00;3.00;;;;;21.18;43.81;101919.73;112022;1262;19486;-37
2024/01/12 00:43:18;;;;;;;;;3.00;3.00;;;;;21.17;43.75;101917.50;112124;1246;20213;-36
2024/01/12 00:45:46;;;;;;;;;5.00;4.00;;;;;21.16;43.71;101925.37;112113;1246;20788;-38
2024/01/12 00:48:13;;;;;;;;;3.50;3.50;;;;;21.16;43.87;101937.81;112081;1262;19556;-39
2024/01/12 00:50:42;;;;;;;;;4.00;3.00;;;;;21.16;43.72;101943.42;112120;1246;20627;-39
2024/01/12 00:53:09;;;;;;;;;3.00;3.00;;;;;21.15;43.85;101942.69;112031;1246;22344;-37
2024/01/12 00:55:36;;;;;;;;;3.00;3.00;;;;;21.15;43.99;101940.06;112023;1262;19675;-37
2024/01/12 00:58:04;;;;;;;;;3.00;3.00;;;;;21.15;43.83;101942.41;112032;1262;19963;-38
2024/01/12 01:00:31;;;;;;;;;3.00;2.00;;;;;21.15;43.65;101943.83;112069;1246;19346;-35
2024/01/12 01:03:01;;;;;;;;;1.00;1.00;;;;;21.15;43.53;101952.21;112074;1262;18856;-36
2024/01/12 01:05:29;;;;;;;;;3.00;3.00;;;;;21.15;43.68;101955.70;112059;1262;20512;-36
2024/01/12 01:07:56;;;;;;;;;3.00;3.00;;;;;21.14;43.70;101959.40;112106;1246;22024;-36
2024/01/12 01:10:24;;;;;;;;;4.00;3.00;;;;;21.14;43.72;101962.17;112058;1262;21038;-37
2024/01/12 01:12:51;;;;;;;;;3.00;3.00;;;;;21.15;43.38;101968.61;112144;1262;18657;-38
2024/01/12 01:15:19;;;;;;;;;3.00;3.00;;;;;21.14;43.39;101970.68;112114;1246;19362;-36
2024/01/12 01:17:47;;;;;;;;;3.00;3.00;;;;;21.14;43.40;101972.02;112121;1246;18162;-38
2024/01/12 01:20:16;;;;;;;;;3.00;3.00;;;;;21.13;43.39;101973.00;112015;1246;19997;-39
2024/01/12 01:22:43;;;;;;;;;4.00;3.00;;;;;21.13;43.53;101971.36;112048;1246;19738;-37
2024/01/12 01:25:11;;;;;;;;;4.00;4.00;;;;;21.12;43.56;101969.71;112244;1246;19538;-38
2024/01/12 01:27:38;;;;;;;;;4.00;3.00;;;;;21.12;43.20;101964.77;112038;1262;19213;-35
2024/01/12 01:30:06;;;;;;;;;3.00;3.00;;;;;21.12;43.41;101963.88;112191;1246;20959;-39
2024/01/12 01:32:34;;;;;;;;;3.00;3.00;;;;;21.11;43.49;101961.85;112011;1246;19622;-39
2024/01/12 01:35:02;;;;;;;;;3.00;3.00;;;;;21.10;43.41;101964.39;112203;1261;20019;-36
2024/01/12 01:37:29;;;;;;;;;3.00;3.00;;;;;21.11;43.39;101960.10;112039;1246;20785;-38
2024/01/12 01:39:57;;;;;;;;;3.00;3.00;;;;;21.10;43.25;101968.91;112161;1246;19699;-37
2024/01/12 01:42:24;;;;;;;;;3.00;3.00;;;;;21.11;43.30;101965.55;112048;1246;18658;-36
2024/01/12 01:44:52;;;;;;;;;3.00;3.00;;;;;21.11;43.43;101966.76;112191;1262;19334;-39
2024/01/12 01:47:19;;;;;;;;;4.00;3.00;;;;;21.11;43.37;101968.44;112026;1262;19531;-36
2024/01/12 01:49:46;;;;;;;;;3.00;3.00;;;;;21.11;43.25;101964.84;112161;1246;19856;-35
2024/01/12 01:52:14;;;;;;;;;3.00;3.00;;;;;21.11;43.32;101962.49;112023;1262;19746;-35
2024/01/12 01:54:42;;;;;;;;;1.00;1.00;;;;;21.11;43.21;101961.35;112190;1246;19655;-36
2024/01/12 01:57:09;;;;;;;;;4.00;4.00;;;;;21.10;43.02;101966.90;112067;1248;20173;-36
2024/01/12 01:59:36;;;;;;;;;3.00;3.00;;;;;21.10;43.06;101967.38;112201;1262;19371;-39
2024/01/12 02:02:04;;;;;;;;;3.00;3.00;;;;;21.09;43.09;101965.30;112024;1246;19632;-39
2024/01/12 02:04:32;;;;;;;;;2.00;2.00;;;;;21.10;43.06;101963.95;112236;1246;20305;-36
2024/01/12 02:06:59;;;;;;;;;3.00;3.00;;;;;21.10;42.96;101960.46;112057;1246;20893;-38
2024/01/12 02:09:27;;;;;;;;;3.00;3.00;;;;;21.10;43.11;101964.77;112246;1261;19516;-36
2024/01/12 02:11:54;;;;;;;;;1.00;1.00;;;;;21.10;42.97;101958.40;112044;1262;18631;-36
2024/01/12 02:14:22;;;;;;;;;3.00;3.00;;;;;21.11;42.91;101961.23;112227;1246;20952;-36
2024/01/12 02:16:49;;;;;;;;;3.00;3.00;;;;;21.10;42.76;101956.38;112036;1246;20004;-35
2024/01/12 02:19:16;;;;;;;;;3.00;3.00;;;;;21.09;42.83;101953.26;112238;1246;20005;-35
2024/01/12 02:21:44;;;;;;;;;3.00;3.00;;;;;21.09;42.72;101944.91;112067;1262;20760;-36
2024/01/12 02:24:11;;;;;;;;;4.00;3.00;;;;;21.09;42.78;101948.84;112195;1246;18650;-35
2024/01/12 02:26:39;;;;;;;;;3.00;3.00;;;;;21.09;42.84;101952.60;112109;1246;20025;-39
2024/01/12 02:29:06;;;;;;;;;3.00;3.00;;;;;21.09;42.96;101953.19;112031;1261;20705;-36
2024/01/12 02:31:33;;;;;;;;;2.33;1.00;;;;;21.09;42.53;101955.20;112097;1262;20590;-36
2024/01/12 02:34:01;;;;;;;;;3.00;3.00;;;;;21.08;42.73;101957.70;112054;1246;21060;-39
2024/01/12 02:36:28;;;;;;;;;1.00;1.00;;;;;21.09;42.67;101959.95;112111;1246;20556;-39
2024/01/12 02:38:56;;;;;;;;;1.00;1.00;;;;;21.08;42.57;101960.04;112118;1261;18306;-38
2024/01/12 02:41:23;;;;;;;;;1.00;1.00;;;;;21.08;42.65;101966.58;112132;1246;19961;-36
2024/01/12 02:43:51;;;;;;;;;1.00;1.00;;;;;21.07;42.76;101968.69;112105;1246;22142;-39
2024/01/12 02:46:19;;;;;;;;;2.00;2.00;;;;;21.07;42.62;101971.13;112054;1261;18162;-38
2024/01/12 02:48:46;;;;;;;;;3.00;1.00;;;;;21.07;42.63;101965.85;112083;1262;19957;-39
2024/01/12 02:51:14;;;;;;;;;3.00;3.00;;;;;21.08;42.59;101972.79;112059;1261;20685;-37
2024/01/12 02:53:41;;;;;;;;;3.00;3.00;;;;;21.08;42.52;101976.59;112104;1246;19661;-39
2024/01/12 02:56:09;;;;;;;;;1.00;1.00;;;;;21.07;42.66;101980.30;112089;1261;20035;-36
2024/01/12 02:58:36;;;;;;;;;3.00;3.00;;;;;21.07;42.50;101979.90;112136;1261;19363;-39
2024/01/12 03:01:03;;;;;;;;;3.00;3.00;;;;;21.07;42.45;101978.60;112096;1261;19625;-35
2024/01/12 03:03:31;;;;;;;;;3.00;3.00;;;;;21.06;42.52;101983.71;112156;1261;18537;-37
2024/01/12 03:05:58;;;;;;;;;1.00;1.00;;;;;21.06;42.39;101975.80;112159;1246;19386;-38
2024/01/12 03:08:26;;;;;;;;;3.00;3.00;;;;;21.05;42.47;101974.64;112209;1246;19712;-37
2024/01/12 03:10:53;;;;;;;;;1.00;1.00;;;;;21.06;42.56;101974.92;112070;1246;21370;-39
2024/01/12 03:13:20;;;;;;;;;3.00;3.00;;;;;21.06;42.50;101967.41;112154;1253;20767;-36
2024/01/12 03:15:48;;;;;;;;;1.00;1.00;;;;;21.07;42.60;101969.16;112087;1246;19617;-37
2024/01/12 03:18:15;;;;;;;;;3.00;3.00;;;;;21.06;42.47;101967.35;112036;1246;21676;-36
2024/01/12 03:20:43;;;;;;;;;4.00;4.00;;;;;21.06;42.30;101964.02;112099;1246;20716;-38
2024/01/12 03:23:10;;;;;;;;;1.00;1.00;;;;;21.06;42.13;101958.36;112052;1246;18222;-35
2024/01/12 03:25:38;;;;;;;;;3.00;3.00;;;;;21.05;42.46;101956.29;112109;1246;21327;-37
2024/01/12 03:28:05;;;;;;;;;3.00;3.00;;;;;21.04;42.28;101962.59;112070;1262;19336;-39
2024/01/12 03:30:32;;;;;;;;;3.33;3.33;;;;;21.05;42.42;101961.23;112142;1246;19576;-37
2024/01/12 03:33:00;;;;;;;;;3.00;1.00;;;;;21.06;42.49;101959.61;112056;1261;18565;-39
2024/01/12 03:35:27;;;;;;;;;4.00;4.00;;;;;21.04;42.29;101954.95;112221;1245;21086;-37
2024/01/12 03:37:55;;;;;;;;;1.00;1.00;;;;;21.05;42.53;101961.45;112034;1262;18181;-38
2024/01/12 03:40:22;;;;;;;;;4.00;3.00;;;;;21.05;42.38;101959.16;112226;1246;19947;-36
2024/01/12 03:42:49;;;;;;;;;3.50;3.00;;;;;21.05;42.32;101963.09;112010;1246;19411;-36
2024/01/12 03:45:17;;;;;;;;;4.00;3.00;;;;;21.06;42.07;101961.09;112246;1246;19580;-36
2024/01/12 03:47:44;;;;;;;;;3.00;3.00;;;;;21.05;42.37;101958.02;112015;1254;18745;-38
2024/01/12 03:50:12;;;;;;;;;3.00;3.00;;;;;21.04;42.33;101958.65;112229;1246;20632;-39
2024/01/12 03:52:39;;;;;;;;;4.00;4.00;;;;;21.04;42.07;101957.94;112084;1246;19647;-36
2024/01/12 03:55:06;;;;;;;;;1.00;1.00;;;;;21.03;42.20;101956.63;112283;1246;20084;-36
2024/01/12 03:57:34;;;;;;;;;3.50;3.00;;;;;21.03;42.04;101954.11;112059;1261;21994;-36
2024/01/12 04:00:01;;;;;;;;;4.00;4.00;;;;;21.03;42.25;101960.86;112178;1246;19816;-35
2024/01/12 04:02:29;;;;;;;;;4.00;4.00;;;;;21.03;42.08;101960.77;112055;1246;21208;-37
2024/01/12 04:04:56;;;;;;;;;6.00;6.00;;;;;21.02;42.05;101961.40;112141;1254;20808;-37
2024/01/12 04:07:24;;;;;;;;;6.00;6.00;;;;;21.02;42.08;101960.20;112073;1261;19223;-36
2024/01/12 04:09:52;;;;;;;;;4.00;4.00;;;;;21.02;42.03;101959.65;112245;1261;18647;-37
2024/01/12 04:12:19;;;;;;;;;4.00;4.00;;;;;21.03;41.98;101960.10;112048;1246;19325;-39
2024/01/12 04:14:46;;;;;;;;;6.00;6.00;;;;;21.03;42.20;101962.95;112127;1262;19587;-39
2024/01/12 04:17:14;;;;;;;;;7.00;6.00;;;;;21.04;42.02;101967.70;112044;1246;21126;-36
2024/01/12 04:19:41;;;;;;;;;6.00;6.00;;;;;21.03;41.93;101965.13;112047;1246;20983;-37
2024/01/12 04:22:09;;;;;;;;;6.00;6.00;;;;;21.02;42.24;101955.52;112077;1254;18161;-37
2024/01/12 04:24:36;;;;;;;;;6.50;6.50;;;;;21.02;41.73;101952.79;112015;1246;18968;-39
2024/01/12 04:27:03;;;;;;;;;7.00;6.33;;;;;21.01;42.00;101948.90;112084;1261;20635;-36
2024/01/12 04:29:31;;;;;;;;;6.00;6.00;;;;;21.02;41.91;101945.38;112107;1261;19615;-35
2024/01/12 04:31:58;;;;;;;;;4.00;4.00;;;;;21.02;41.77;101943.70;112116;1246;20012;-35
2024/01/12 04:34:26;;;;;;;;;7.00;6.67;;;;;21.03;41.87;101943.60;112100;1246;20725;-39
2024/01/12 04:36:53;;;;;;;;;7.00;7.00;;;;;21.02;42.07;101941.63;112115;1261;18252;-36
2024/01/12 04:39:21;;;;;;;;;6.00;6.00;;;;;21.02;41.71;101942.94;112150;1254;18623;-38
2024/01/12 04:41:49;;;;;;;;;6.67;6.00;;;;;21.02;41.91;101943.27;112055;1262;20719;-36
2024/01/12 04:44:16;;;;;;;;;9.00;9.00;;;;;21.02;41.71;101941.63;112079;1246;19498;-38
2024/01/12 04:46:44;;;;;;;;;9.50;9.00;;;;;21.02;41.84;101939.34;112112;1261;19983;-38
2024/01/12 04:49:11;;;;;;;;;10.00;9.50;;;;;21.01;41.99;101940.58;112094;1261;20679;-37
2024/01/12 04:51:38;;;;;;;;;7.67;6.67;;;;;21.01;41.98;101941.94;112074;1262;18571;-36
2024/01/12 04:54:06;;;;;;;;;7.00;6.00;;;;;21.01;41.90;101943.58;112095;1262;18645;-36
2024/01/12 04:56:33;;;;;;;;;7.00;7.00;;;;;21.01;41.76;101943.25;112109;1246;22318;-39
2024/01/12 04:59:01;;;;;;;;;10.00;9.00;;;;;21.01;41.97;101942.95;112116;1245;19596;-37
2024/01/12 05:01:28;;;;;;;;;8.00;8.00;;;;;21.01;41.75;101942.25;112122;1246;20067;-37
2024/01/12 05:03:56;;;;;;;;;8.33;8.33;;;;;21.00;41.78;101933.25;112136;1245;22077;-36
2024/01/12 05:06:23;;;;;;;;;9.00;9.00;;;;;21.00;41.89;101934.52;112046;1246;19657;-37
2024/01/12 05:08:51;;;;;;;;;9.00;7.00;;;;;21.02;41.63;101935.02;112157;1261;19226;-39
2024/01/12 05:11:18;;;;;;;;;10.67;9.00;;;;;21.01;41.77;101927.54;112017;1261;21228;-37
2024/01/12 05:13:46;;;;;;;;;7.00;7.00;;;;;21.00;41.65;101931.61;112133;1262;19547;-37
2024/01/12 05:16:13;;;;;;;;;12.00;10.00;;;;;21.00;41.81;101932.88;112081;1262;18585;-36
2024/01/12 05:18:41;;;;;;;;;10.67;9.00;;;;;21.00;41.63;101932.17;112131;1246;20794;-37
2024/01/12 05:21:08;;;;;;;;;9.00;9.00;;;;;21.00;41.77;101929.16;112098;1261;18589;-39
2024/01/12 05:23:35;;;;;;;;;10.00;9.00;;;;;21.02;41.44;101928.70;112171;1261;18848;-38
2024/01/12 05:26:03;;;;;;;;;12.00;10.00;;;;;21.00;41.56;101926.17;112132;1246;20709;-37
2024/01/12 05:28:30;;;;;;;;;13.00;10.00;;;;;21.00;41.67;101924.85;112180;1247;21327;-36
2024/01/12 05:30:58;;;;;;;;;10.00;10.00;;;;;20.99;41.70;101923.59;112071;1262;18634;-40
2024/01/12 05:33:25;;;;;;;;;8.00;7.00;;;;;21.00;41.66;101924.05;112179;1262;20720;-37
2024/01/12 05:35:52;;;;;;;;;10.00;10.00;;;;;21.00;41.48;101923.91;112007;1262;18504;-36
2024/01/12 05:38:20;;;;;;;;;13.00;12.00;;;;;21.00;41.59;101920.34;112116;1246;20182;-38
2024/01/12 05:40:47;;;;;;;;;10.00;9.50;;;;;21.00;41.39;101918.48;112075;1262;20721;-36
2024/01/12 05:43:17;;;;;;;;;12.00;10.00;;;;;20.99;41.35;101923.97;112021;1262;18597;-40
2024/01/12 05:45:45;;;;;;;;;15.00;13.00;;;;;20.99;41.38;101921.95;112005;1246;20078;-36
2024/01/12 05:48:12;;;;;;;;;10.00;10.00;;;;;20.99;41.58;101919.02;112123;1246;19327;-38
2024/01/12 05:50:40;;;;;;;;;9.00;9.00;;;;;21.00;41.68;101916.84;112015;1262;18997;-36
2024/01/12 05:53:07;;;;;;;;;12.50;10.00;;;;;20.99;41.61;101921.46;112110;1262;18645;-39
2024/01/12 05:55:34;;;;;;;;;12.00;10.00;;;;;20.99;41.61;101920.27;112056;1261;19367;-36
2024/01/12 05:58:03;;;;;;;;;9.67;9.33;;;;;20.98;41.58;101924.11;112152;1246;20011;-36
2024/01/12 06:00:30;;;;;;;;;12.00;12.00;;;;;21.00;41.34;101920.94;112067;1262;18613;-38
2024/01/12 06:02:58;;;;;;;;;15.50;11.00;;;;;20.99;41.33;101920.10;112069;1262;19522;-35
2024/01/12 06:05:25;;;;;;;;;11.00;11.00;;;;;21.01;41.37;101917.57;112115;1246;18683;-37
2024/01/12 06:07:52;;;;;;;;;12.00;9.50;;;;;21.01;41.38;101924.39;112114;1261;18739;-38
2024/01/12 06:10:20;;;;;;;;;12.00;12.00;;;;;21.02;41.53;101922.61;112119;1246;21176;-37
2024/01/12 06:12:47;;;;;;;;;11.33;10.00;;;;;21.02;41.41;101926.25;112122;1246;21252;-36
2024/01/12 06:15:15;;;;;;;;;12.00;12.00;;;;;21.01;41.68;101929.58;112110;1262;18727;-36
2024/01/12 06:17:42;;;;;;;;;12.00;11.00;;;;;21.02;41.47;101936.45;112143;1262;19197;-36
2024/01/12 06:20:10;;;;;;;;;10.00;10.00;;;;;21.03;41.48;101933.41;112052;1261;18944;-39
2024/01/12 06:22:37;;;;;;;;;10.00;9.50;;;;;21.03;41.71;101939.78;112110;1262;20004;-36
2024/01/12 06:25:04;;;;;;;;;11.00;11.00;;;;;21.02;41.50;101936.02;112028;1253;20931;-38
2024/01/12 06:27:32;;;;;;;;;12.00;10.00;;;;;21.02;41.28;101937.86;112042;1262;18561;-38
2024/01/12 06:29:59;;;;;;;;;13.00;12.00;;;;;21.01;41.31;101940.69;112034;1261;18737;-38
2024/01/12 06:32:27;;;;;;;;;12.00;10.00;;;;;21.05;41.28;101941.52;112065;1246;20659;-36
2024/01/12 06:34:54;;;;;;;;;15.00;12.50;;;;;21.06;41.18;101935.97;112031;1262;20084;-36
2024/01/12 06:37:22;;;;;;;;;12.67;12.00;;;;;21.08;41.31;101936.66;112079;1261;18705;-37
2024/01/12 06:39:50;;;;;;;;;9.67;9.67;;;;;21.08;40.98;101943.91;112017;1246;20814;-37
2024/01/12 06:42:17;;;;;;;;;13.00;12.00;;;;;21.05;41.11;101945.31;112082;1246;20367;-39
2024/01/12 06:44:45;;;;;;;;;13.00;10.00;;;;;21.02;41.21;101948.27;112171;1247;20068;-37
2024/01/12 06:47:12;;;;;;;;;11.00;11.00;;;;;21.01;41.01;101943.46;112074;1256;19320;-38
2024/01/12 06:49:40;;;;;;;;;15.00;13.00;;;;;21.01;40.97;101936.97;112196;1245;20163;-37
2024/01/12 06:52:07;;;;;;;;;13.00;12.00;;;;;21.01;41.23;101933.42;112072;1261;18826;-37
2024/01/12 06:54:35;;;;;;;;;12.00;9.00;;;;;21.01;41.08;101930.81;112088;1245;20744;-36
2024/01/12 06:57:02;;;;;;;;;9.00;9.00;;;;;21.00;41.19;101927.98;112148;1246;19968;-40
2024/01/12 06:59:30;;;;;;;;;12.00;10.00;;;;;21.05;41.06;101920.59;112116;1261;19939;-38
2024/01/12 07:01:57;;;;;;;;;12.00;12.00;;;;;21.08;40.99;101915.86;112157;1246;20819;-36
2024/01/12 07:04:24;;;;;;;;;12.00;12.00;;;;;21.10;40.93;101909.95;112048;1253;19989;-38
2024/01/12 07:06:53;;;;;;;;;9.00;9.00;;;;;21.10;41.47;101911.04;112085;1246;18718;-39
2024/01/12 07:09:20;;;;;;;;;10.00;9.00;;;;;21.11;41.50;101909.54;112145;1247;20776;-37
2024/01/12 07:11:48;;;;;;;;;13.00;12.00;;;;;21.09;41.66;101909.43;112068;1261;19584;-36
2024/01/12 07:14:15;;;;;;;;;12.00;10.00;;;;;21.07;41.88;101911.86;112135;1247;21517;-36
2024/01/12 07:16:42;;;;;;;;;9.00;9.00;;;;;21.14;41.63;101906.96;112012;1254;19630;-39
2024/01/12 07:19:10;;;;;;;;;12.00;9.50;;;;;21.25;41.67;101900.41;112099;1246;20542;-36
2024/01/12 07:21:37;;;;;;;;;9.00;8.00;;;;;21.22;41.97;101898.20;112082;1262;18687;-38
2024/01/12 07:24:05;;;;;;;;;12.00;10.00;;;;;21.15;42.53;101895.66;112035;1246;21123;-38
2024/01/12 07:26:32;;;;;;;;;10.00;9.00;;;;;21.24;42.21;101891.88;112117;1262;18590;-36
2024/01/12 07:29:00;;;;;;;;;11.00;11.00;;;;;21.21;42.53;101890.55;112040;1246;18909;-35
2024/01/12 07:31:28;;;;;;;;;9.00;9.00;;;;;21.20;43.15;101891.33;112032;1246;21996;-36
2024/01/12 07:33:55;;;;;;;;;9.50;9.00;;;;;21.17;43.03;101888.61;112221;1262;18702;-36
2024/01/12 07:36:23;;;;;;;;;11.00;10.00;;;;;21.19;42.85;101881.74;112077;1261;18674;-39
2024/01/12 07:38:50;;;;;;;;;10.00;9.50;;;;;21.25;42.43;101880.23;112200;1261;20818;-36
2024/01/12 07:41:18;;;;;;;;;9.00;7.00;;;;;21.17;43.11;101880.33;112144;1261;18848;-37
2024/01/12 07:43:45;;;;;;;;;9.00;9.00;;;;;21.16;43.29;101877.32;112069;1262;19931;-38
2024/01/12 07:46:12;;;;;;;;;12.33;9.00;;;;;21.35;43.03;101882.53;112185;1261;19306;-39
2024/01/12 07:48:40;;;;;;;;;10.00;9.00;;;;;21.22;43.27;101882.01;112051;1262;19604;-39
2024/01/12 07:51:07;;;;;;;;;9.00;7.00;;;;;21.11;43.49;101888.60;112210;1246;20078;-36
2024/01/12 07:53:35;;;;;;;;;9.00;7.00;;;;;21.11;43.41;101890.99;112046;1261;19359;-40
2024/01/12 07:56:02;;;;;;;;;10.00;7.00;;;;;21.08;43.74;101882.02;112171;1246;18787;-38
2024/01/12 07:58:30;;;;;;;;;7.00;7.00;;;;;21.04;43.72;101888.33;112052;1262;18540;-36
2024/01/12 08:00:57;;;;;;;;;9.00;9.00;;;;;21.01;43.59;101887.85;112067;1246;22074;-36
2024/01/12 08:03:24;;;;;;;;;10.50;9.50;;;;;21.02;43.41;101886.27;112043;1246;19803;-36
2024/01/12 08:05:52;;;;;;;;;8.50;7.00;;;;;21.01;43.70;101889.95;112084;1262;20119;-37
2024/01/12 08:08:20;;;;;;;;;10.00;9.00;;;;;21.00;43.73;101884.60;112059;1262;19569;-38
2024/01/12 08:10:47;;;;;;;;;9.00;9.00;;;;;20.99;43.65;101884.20;112086;1255;18195;-36
2024/01/12 08:13:15;;;;;;;;;9.00;8.00;;;;;20.99;43.46;101876.41;112028;1246;20270;-37
2024/01/12 08:15:42;;;;;;;;;6.50;6.00;;;;;21.00;43.31;101877.35;112072;1246;21013;-39
2024/01/12 08:18:10;;;;;;;;;7.00;6.00;;;;;21.03;43.15;101866.67;112042;1262;18180;-36
2024/01/12 08:20:37;;;;;;;;;9.00;9.00;;;;;21.03;43.75;101861.07;112138;1261;19966;-38
2024/01/12 08:23:05;;;;;;;;;7.00;6.00;;;;;21.05;43.58;101860.27;112079;1246;20967;-37
2024/01/12 08:25:32;;;;;;;;;10.00;9.00;;;;;21.05;43.58;101857.29;112127;1246;19946;-38
2024/01/12 08:28:00;;;;;;;;;11.00;8.00;;;;;21.04;43.64;101853.66;112062;1262;18842;-37
2024/01/12 08:30:27;;;;;;;;;6.00;6.00;;;;;21.03;43.67;101852.06;112154;1261;19641;-38
2024/01/12 08:32:55;;;;;;;;;7.00;7.00;;;;;21.13;43.70;101855.78;111997;1246;20038;-35
2024/01/12 08:35:22;;;;;;;;;7.00;7.00;;;;;21.18;43.70;101860.30;112186;1246;20116;-37
2024/01/12 08:37:50;;;;;;;;;9.00;9.00;;;;;21.21;43.91;101864.44;112037;1262;20685;-36
2024/01/12 08:40:17;;;;;;;;;8.33;7.00;;;;;21.13;44.22;101866.75;112198;1246;19672;-36
2024/01/12 08:42:44;;;;;;;;;10.00;9.00;;;;;21.16;44.33;101862.27;112022;1262;19992;-38
2024/01/12 08:45:12;;;;;;;;;6.00;6.00;;;;;21.25;44.06;101851.82;112202;1261;19542;-38
2024/01/12 08:47:39;;;;;;;;;6.00;6.00;;;;;21.33;43.71;101841.83;112017;1246;19019;-39
2024/01/12 08:50:07;;;;;;;;;6.00;6.00;;;;;21.26;43.72;101838.48;112247;1261;18596;-39
2024/01/12 08:52:34;;;;;;;;;4.00;4.00;;;;;21.21;44.31;101846.79;112028;1247;20930;-36
2024/01/12 08:55:03;;;;;;;;;4.00;4.00;;;;;21.18;44.35;101851.02;112256;1261;19995;-36
2024/01/12 08:57:30;;;;;;;;;9.00;7.00;;;;;21.18;44.72;101854.73;112111;1262;19974;-35
2024/01/12 08:59:57;;;;;;;;;7.00;7.00;;;;;21.18;44.56;101853.59;112184;1261;19329;-36
2024/01/12 09:02:25;;;;;;;;;6.00;6.00;;;;;21.20;44.76;101858.32;112025;1246;19724;-38
2024/01/12 09:04:52;;;;;;;;;7.00;6.00;;;;;21.19;44.50;101861.74;112221;1246;18596;-36
2024/01/12 09:07:20;;;;;;;;;7.00;7.00;;;;;21.23;44.67;101861.92;112003;1262;20692;-38
2024/01/12 09:09:47;;;;;;;;;7.00;7.00;;;;;21.17;44.86;101858.73;112181;1261;19631;-38
2024/01/12 09:12:15;;;;;;;;;9.00;6.00;;;;;21.17;44.71;101859.50;112015;1261;18532;-38
2024/01/12 09:14:43;;;;;;;;;10.00;10.00;;;;;21.16;44.28;101860.52;112167;1261;19415;-35
2024/01/12 09:17:10;;;;;;;;;9.00;7.00;;;;;21.14;44.49;101857.88;112089;1254;19737;-36
2024/01/12 09:19:38;;;;;;;;;7.00;7.00;;;;;21.19;44.24;101851.77;112172;1261;20048;-38
2024/01/12 09:22:05;;;;;;;;;7.00;6.00;;;;;21.17;44.40;101846.37;112024;1262;19571;-37
2024/01/12 09:24:32;;;;;;;;;7.00;7.00;;;;;21.11;44.63;101846.86;111993;1246;18958;-36
2024/01/12 09:27:00;;;;;;;;;13.67;12.33;;;;;21.15;44.29;101839.42;111987;1261;19887;-39
2024/01/12 09:29:27;;;;;;;;;50.00;43.50;;;;;21.12;44.19;101824.27;111983;1262;19356;-37
2024/01/12 09:31:55;;;;;;;;;81.00;61.00;;;;;21.10;43.90;101814.48;111950;1246;20750;-37
2024/01/12 09:34:22;;;;;;;;;86.00;66.00;;;;;21.11;44.19;101806.88;111926;1254;20709;-36
2024/01/12 09:36:50;;;;;;;;;80.00;62.50;;;;;21.08;43.69;101804.27;111958;1246;21099;-37
2024/01/12 09:39:17;;;;;;;;;86.00;63.00;;;;;21.18;44.37;101801.91;111944;1262;18564;-37
2024/01/12 09:41:45;;;;;;;;;78.00;56.00;;;;;21.15;44.31;101798.55;111978;1262;18950;-37
2024/01/12 09:44:12;;;;;;;;;70.00;52.00;;;;;21.15;44.29;101792.34;111992;1246;19573;-36
2024/01/12 09:46:39;;;;;;;;;68.50;53.00;;;;;21.16;44.20;101791.48;111986;1261;20124;-35
2024/01/12 09:49:07;;;;;;;;;55.00;46.50;;;;;21.19;44.09;101791.92;112044;1246;20174;-37
2024/01/12 09:51:35;;;;;;;;;46.50;39.00;;;;;21.29;43.94;101794.27;112102;1246;21235;-36
2024/01/12 09:54:02;;;;;;;;;49.00;41.00;;;;;21.27;44.03;101793.29;112052;1261;19997;-37
2024/01/12 09:56:30;;;;;;;;;49.00;40.00;;;;;21.24;44.13;101781.08;112034;1247;20126;-37
2024/01/12 09:58:57;;;;;;;;;38.00;33.00;;;;;21.21;44.26;101769.57;112040;1262;20602;-37
2024/01/12 10:01:25;;;;;;;;;38.50;34.00;;;;;21.19;44.47;101761.85;112026;1262;20009;-40
2024/01/12 10:03:52;;;;;;;;;50.00;37.33;;;;;21.23;44.66;101756.10;112032;1262;19082;-39
2024/01/12 10:06:20;;;;;;;;;35.33;33.00;;;;;21.22;44.58;101759.77;112034;1262;21004;-36
2024/01/12 10:08:47;;;;;;;;;37.00;31.67;;;;;21.26;44.68;101749.71;112058;1262;19898;-36
2024/01/12 10:11:15;;;;;;;;;36.00;31.33;;;;;21.25;44.69;101748.88;112021;1262;18767;-39
2024/01/12 10:13:42;;;;;;;;;43.00;33.00;;;;;21.23;44.54;101747.00;112100;1262;19737;-38
2024/01/12 10:16:11;;;;;;;;;32.50;31.00;;;;;21.21;44.40;101743.53;112031;1246;20021;-37
2024/01/12 10:18:38;;;;;;;;;26.50;24.00;;;;;21.14;45.08;101735.44;112072;1262;20056;-35
2024/01/12 10:21:05;;;;;;;;;35.00;30.00;;;;;21.18;45.09;101718.56;112071;1262;20698;-37
2024/01/12 10:23:33;;;;;;;;;35.00;27.00;;;;;21.18;45.32;101702.81;112041;1262;18548;-36
2024/01/12 10:26:00;;;;;;;;;26.50;26.00;;;;;21.27;44.78;101691.57;112133;1246;20267;-38
2024/01/12 10:28:28;;;;;;;;;30.00;26.00;;;;;21.28;44.91;101674.20;112085;1246;20749;-37
2024/01/12 10:30:55;;;;;;;;;32.50;29.00;;;;;21.41;44.52;101663.37;112117;1246;18600;-35
2024/01/12 10:33:23;;;;;;;;;24.00;21.00;;;;;21.42;44.84;101662.62;112072;1262;18901;-37
2024/01/12 10:35:51;;;;;;;;;32.00;27.00;;;;;21.46;44.59;101659.90;112122;1246;20837;-38
2024/01/12 10:38:18;;;;;;;;;26.00;23.00;;;;;21.46;44.58;101654.23;112052;1262;18983;-35
2024/01/12 10:40:45;;;;;;;;;24.50;20.00;;;;;21.40;44.68;101657.70;112165;1261;18878;-39
2024/01/12 10:43:13;;;;;;;;;27.00;21.00;;;;;21.37;45.00;101664.45;112087;1246;22000;-35
2024/01/12 10:45:40;;;;;;;;;24.00;21.00;;;;;21.36;44.83;101647.16;112192;1246;18568;-36
2024/01/12 10:48:08;;;;;;;;;26.00;21.00;;;;;21.33;45.04;101636.78;112079;1246;20228;-36
2024/01/12 10:50:35;;;;;;;;;25.00;21.00;;;;;21.34;45.09;101640.12;112224;1246;19335;-35
2024/01/12 10:53:02;;;;;;;;;18.00;15.50;;;;;21.41;44.91;101645.45;112028;1246;20074;-38
2024/01/12 10:55:30;;;;;;;;;30.00;22.00;;;;;21.45;44.94;101648.83;112163;1262;21781;-35
2024/01/12 10:57:57;;;;;;;;;22.00;19.00;;;;;21.41;45.23;101648.10;112054;1257;20980;-36
2024/01/12 11:00:26;;;;;;;;;22.00;19.00;;;;;21.38;45.26;101640.55;112141;1254;18610;-37
2024/01/12 11:02:54;;;;;;;;;21.00;18.00;;;;;21.38;44.88;101643.00;112023;1246;20491;-35
2024/01/12 11:05:21;;;;;;;;;19.50;18.50;;;;;21.37;44.94;101631.54;112151;1262;20661;-36
2024/01/12 11:07:49;;;;;;;;;18.00;15.00;;;;;21.39;44.93;101626.73;112039;1246;20290;-37
2024/01/12 11:10:16;;;;;;;;;18.00;16.00;;;;;21.43;44.90;101621.96;112167;1246;20045;-38
2024/01/12 11:12:44;;;;;;;;;18.00;18.00;;;;;21.37;44.90;101613.27;112048;1247;19257;-35